sensor_id;sensor_type;location;lat;lon;timestamp;P1;durP1;ratioP1;P2;durP2;ratioP2
11837;SDS011;5978;51.020;6.764;2023-06-26T00:02:18;8.37;;;7.57;;
11837;SDS011;5978;51.020;6.764;2023-06-26T00:04:43;8.40;;;7.57;;
11837;SDS011;5978;51.020;6.764;2023-06-26T00:07:09;8.93;;;8.13;;
11837;SDS011;5978;51.020;6.764;2023-06-26T00:09:35;8.93;;;8.13;;
11837;SDS011;5978;51.020;6.764;2023-06-26T00:12:01;8.30;;;7.50;;
11837;SDS011;5978;51.020;6.764;2023-06-26T00:14:27;9.80;;;7.87;;
11837;SDS011;5978;51.020;6.764;2023-06-26T00:16:53;9.30;;;8.40;;
11837;SDS011;5978;51.020;6.764;2023-06-26T00:19:18;9.43;;;7.97;;
11837;SDS011;5978;51.020;6.764;2023-06-26T00:21:44;14.00;;;7.83;;
11837;SDS011;5978;51.020;6.764;2023-06-26T00:24:15;9.50;;;8.47;;
11837;SDS011;5978;51.020;6.764;2023-06-26T00:26:42;8.23;;;7.43;;
11837;SDS011;5978;51.020;6.764;2023-06-26T00:29:08;9.33;;;8.50;;
11837;SDS011;5978;51.020;6.764;2023-06-26T00:31:33;8.60;;;7.80;;
11837;SDS011;5978;51.020;6.764;2023-06-26T00:34:00;10.83;;;8.07;;
11837;SDS011;5978;51.020;6.764;2023-06-26T00:36:26;8.30;;;7.60;;
11837;SDS011;5978;51.020;6.764;2023-06-26T00:38:52;9.10;;;8.17;;
11837;SDS011;5978;51.020;6.764;2023-06-26T00:41:18;9.53;;;8.63;;
11837;SDS011;5978;51.020;6.764;2023-06-26T00:43:44;8.60;;;7.80;;
11837;SDS011;5978;51.020;6.764;2023-06-26T00:46:11;9.00;;;8.10;;
11837;SDS011;5978;51.020;6.764;2023-06-26T00:48:39;10.90;;;8.37;;
11837;SDS011;5978;51.020;6.764;2023-06-26T00:51:10;9.70;;;8.80;;
11837;SDS011;5978;51.020;6.764;2023-06-26T00:53:36;9.63;;;8.70;;
11837;SDS011;5978;51.020;6.764;2023-06-26T00:56:02;9.33;;;8.47;;
11837;SDS011;5978;51.020;6.764;2023-06-26T00:58:28;8.20;;;7.40;;
11837;SDS011;5978;51.020;6.764;2023-06-26T01:00:54;9.33;;;7.50;;
11837;SDS011;5978;51.020;6.764;2023-06-26T01:03:20;8.80;;;7.70;;
11837;SDS011;5978;51.020;6.764;2023-06-26T01:05:47;10.00;;;9.00;;
11837;SDS011;5978;51.020;6.764;2023-06-26T01:08:14;8.77;;;7.97;;
11837;SDS011;5978;51.020;6.764;2023-06-26T01:10:40;10.80;;;7.67;;
11837;SDS011;5978;51.020;6.764;2023-06-26T01:13:06;11.60;;;7.73;;
11837;SDS011;5978;51.020;6.764;2023-06-26T01:15:32;9.40;;;8.50;;
11837;SDS011;5978;51.020;6.764;2023-06-26T01:17:58;9.63;;;8.53;;
11837;SDS011;5978;51.020;6.764;2023-06-26T01:20:28;9.03;;;8.20;;
11837;SDS011;5978;51.020;6.764;2023-06-26T01:23:07;9.27;;;8.47;;
11837;SDS011;5978;51.020;6.764;2023-06-26T01:28:32;9.13;;;7.50;;
11837;SDS011;5978;51.020;6.764;2023-06-26T01:31:00;8.70;;;7.90;;
11837;SDS011;5978;51.020;6.764;2023-06-26T01:33:27;11.93;;;8.40;;
11837;SDS011;5978;51.020;6.764;2023-06-26T01:35:53;12.80;;;9.70;;
11837;SDS011;5978;51.020;6.764;2023-06-26T01:38:20;8.80;;;8.00;;
11837;SDS011;5978;51.020;6.764;2023-06-26T01:40:48;9.63;;;8.73;;
11837;SDS011;5978;51.020;6.764;2023-06-26T01:43:37;11.43;;;7.83;;
11837;SDS011;5978;51.020;6.764;2023-06-26T01:46:21;8.57;;;7.83;;
11837;SDS011;5978;51.020;6.764;2023-06-26T01:48:54;11.90;;;8.37;;
11837;SDS011;5978;51.020;6.764;2023-06-26T01:51:31;10.23;;;8.13;;
11837;SDS011;5978;51.020;6.764;2023-06-26T01:54:01;9.73;;;8.73;;
11837;SDS011;5978;51.020;6.764;2023-06-26T01:56:27;9.10;;;8.30;;
11837;SDS011;5978;51.020;6.764;2023-06-26T01:58:54;9.50;;;8.60;;
11837;SDS011;5978;51.020;6.764;2023-06-26T02:01:21;8.83;;;7.90;;
11837;SDS011;5978;51.020;6.764;2023-06-26T02:03:47;11.20;;;9.70;;
11837;SDS011;5978;51.020;6.764;2023-06-26T02:06:13;8.47;;;7.10;;
11837;SDS011;5978;51.020;6.764;2023-06-26T02:08:39;13.00;;;8.63;;
11837;SDS011;5978;51.020;6.764;2023-06-26T02:11:05;9.50;;;8.60;;
11837;SDS011;5978;51.020;6.764;2023-06-26T02:13:30;11.20;;;8.97;;
11837;SDS011;5978;51.020;6.764;2023-06-26T02:15:56;9.50;;;8.40;;
11837;SDS011;5978;51.020;6.764;2023-06-26T02:18:22;10.47;;;8.60;;
11837;SDS011;5978;51.020;6.764;2023-06-26T02:20:48;9.77;;;8.80;;
11837;SDS011;5978;51.020;6.764;2023-06-26T02:23:14;8.53;;;7.70;;
11837;SDS011;5978;51.020;6.764;2023-06-26T02:25:39;7.47;;;6.83;;
11837;SDS011;5978;51.020;6.764;2023-06-26T02:28:05;9.10;;;8.30;;
11837;SDS011;5978;51.020;6.764;2023-06-26T02:30:30;8.70;;;7.90;;
11837;SDS011;5978;51.020;6.764;2023-06-26T02:32:56;9.30;;;8.50;;
11837;SDS011;5978;51.020;6.764;2023-06-26T02:35:21;8.07;;;7.30;;
11837;SDS011;5978;51.020;6.764;2023-06-26T02:37:47;8.80;;;8.00;;
11837;SDS011;5978;51.020;6.764;2023-06-26T02:40:12;9.00;;;8.20;;
11837;SDS011;5978;51.020;6.764;2023-06-26T02:42:38;9.40;;;8.60;;
11837;SDS011;5978;51.020;6.764;2023-06-26T02:45:03;8.90;;;8.10;;
11837;SDS011;5978;51.020;6.764;2023-06-26T02:47:29;10.10;;;8.10;;
11837;SDS011;5978;51.020;6.764;2023-06-26T02:49:55;9.50;;;8.27;;
11837;SDS011;5978;51.020;6.764;2023-06-26T02:52:20;8.70;;;7.90;;
11837;SDS011;5978;51.020;6.764;2023-06-26T02:54:46;9.03;;;8.03;;
11837;SDS011;5978;51.020;6.764;2023-06-26T02:57:11;16.33;;;8.93;;
11837;SDS011;5978;51.020;6.764;2023-06-26T02:59:37;12.27;;;8.17;;
11837;SDS011;5978;51.020;6.764;2023-06-26T03:02:04;8.90;;;8.13;;
11837;SDS011;5978;51.020;6.764;2023-06-26T03:04:30;8.30;;;7.50;;
11837;SDS011;5978;51.020;6.764;2023-06-26T03:06:55;11.13;;;8.33;;
11837;SDS011;5978;51.020;6.764;2023-06-26T03:09:21;9.73;;;8.30;;
11837;SDS011;5978;51.020;6.764;2023-06-26T03:11:46;12.30;;;8.87;;
11837;SDS011;5978;51.020;6.764;2023-06-26T03:14:12;9.57;;;8.57;;
11837;SDS011;5978;51.020;6.764;2023-06-26T03:16:38;10.67;;;8.63;;
11837;SDS011;5978;51.020;6.764;2023-06-26T03:19:03;10.40;;;7.37;;
11837;SDS011;5978;51.020;6.764;2023-06-26T03:21:29;10.40;;;7.57;;
11837;SDS011;5978;51.020;6.764;2023-06-26T03:23:55;9.53;;;7.60;;
11837;SDS011;5978;51.020;6.764;2023-06-26T03:26:20;10.47;;;7.50;;
11837;SDS011;5978;51.020;6.764;2023-06-26T03:28:52;9.57;;;8.10;;
11837;SDS011;5978;51.020;6.764;2023-06-26T03:31:18;9.20;;;7.90;;
11837;SDS011;5978;51.020;6.764;2023-06-26T03:33:44;9.40;;;8.50;;
11837;SDS011;5978;51.020;6.764;2023-06-26T03:36:10;9.00;;;8.20;;
11837;SDS011;5978;51.020;6.764;2023-06-26T03:38:35;10.40;;;7.10;;
11837;SDS011;5978;51.020;6.764;2023-06-26T03:41:01;11.80;;;9.30;;
11837;SDS011;5978;51.020;6.764;2023-06-26T03:43:27;11.00;;;7.60;;
11837;SDS011;5978;51.020;6.764;2023-06-26T03:45:53;11.50;;;8.20;;
11837;SDS011;5978;51.020;6.764;2023-06-26T03:48:18;9.30;;;7.27;;
11837;SDS011;5978;51.020;6.764;2023-06-26T03:50:44;10.27;;;7.13;;
11837;SDS011;5978;51.020;6.764;2023-06-26T03:53:10;10.80;;;7.73;;
11837;SDS011;5978;51.020;6.764;2023-06-26T03:55:36;10.57;;;7.10;;
11837;SDS011;5978;51.020;6.764;2023-06-26T03:58:03;8.73;;;7.20;;
11837;SDS011;5978;51.020;6.764;2023-06-26T04:00:29;8.40;;;7.60;;
11837;SDS011;5978;51.020;6.764;2023-06-26T04:02:54;8.30;;;7.50;;
11837;SDS011;5978;51.020;6.764;2023-06-26T04:05:20;9.63;;;7.50;;
11837;SDS011;5978;51.020;6.764;2023-06-26T04:07:45;11.73;;;8.37;;
11837;SDS011;5978;51.020;6.764;2023-06-26T04:10:14;9.47;;;8.50;;
11837;SDS011;5978;51.020;6.764;2023-06-26T04:12:39;8.57;;;7.67;;
11837;SDS011;5978;51.020;6.764;2023-06-26T04:15:05;10.53;;;7.30;;
11837;SDS011;5978;51.020;6.764;2023-06-26T04:17:31;9.23;;;7.87;;
11837;SDS011;5978;51.020;6.764;2023-06-26T04:19:56;8.80;;;7.90;;
11837;SDS011;5978;51.020;6.764;2023-06-26T04:22:22;9.17;;;7.80;;
11837;SDS011;5978;51.020;6.764;2023-06-26T04:24:48;10.30;;;8.53;;
11837;SDS011;5978;51.020;6.764;2023-06-26T04:27:14;10.20;;;7.33;;
11837;SDS011;5978;51.020;6.764;2023-06-26T04:29:40;11.13;;;8.57;;
11837;SDS011;5978;51.020;6.764;2023-06-26T04:32:05;10.07;;;8.07;;
11837;SDS011;5978;51.020;6.764;2023-06-26T04:34:32;10.40;;;7.20;;
11837;SDS011;5978;51.020;6.764;2023-06-26T04:36:58;11.37;;;6.90;;
11837;SDS011;5978;51.020;6.764;2023-06-26T04:39:24;7.63;;;6.93;;
11837;SDS011;5978;51.020;6.764;2023-06-26T04:41:50;14.07;;;7.67;;
11837;SDS011;5978;51.020;6.764;2023-06-26T04:44:15;10.30;;;7.30;;
11837;SDS011;5978;51.020;6.764;2023-06-26T04:46:41;14.00;;;7.00;;
11837;SDS011;5978;51.020;6.764;2023-06-26T04:49:07;9.07;;;8.17;;
11837;SDS011;5978;51.020;6.764;2023-06-26T04:51:33;8.77;;;6.97;;
11837;SDS011;5978;51.020;6.764;2023-06-26T04:54:05;7.70;;;6.40;;
11837;SDS011;5978;51.020;6.764;2023-06-26T04:56:34;8.67;;;6.00;;
11837;SDS011;5978;51.020;6.764;2023-06-26T04:59:00;6.83;;;6.17;;
11837;SDS011;5978;51.020;6.764;2023-06-26T05:01:25;8.90;;;6.10;;
11837;SDS011;5978;51.020;6.764;2023-06-26T05:03:54;7.20;;;5.70;;
11837;SDS011;5978;51.020;6.764;2023-06-26T05:06:21;9.80;;;6.47;;
11837;SDS011;5978;51.020;6.764;2023-06-26T05:08:47;6.90;;;6.20;;
11837;SDS011;5978;51.020;6.764;2023-06-26T05:11:12;7.53;;;6.33;;
11837;SDS011;5978;51.020;6.764;2023-06-26T05:13:38;9.00;;;6.10;;
11837;SDS011;5978;51.020;6.764;2023-06-26T05:16:03;7.53;;;6.20;;
11837;SDS011;5978;51.020;6.764;2023-06-26T05:18:30;8.07;;;6.43;;
11837;SDS011;5978;51.020;6.764;2023-06-26T05:20:56;7.03;;;6.10;;
11837;SDS011;5978;51.020;6.764;2023-06-26T05:23:21;6.10;;;5.50;;
11837;SDS011;5978;51.020;6.764;2023-06-26T05:25:50;9.07;;;6.13;;
11837;SDS011;5978;51.020;6.764;2023-06-26T05:28:16;6.90;;;5.50;;
11837;SDS011;5978;51.020;6.764;2023-06-26T05:30:42;8.40;;;6.70;;
11837;SDS011;5978;51.020;6.764;2023-06-26T05:33:08;6.50;;;5.57;;
11837;SDS011;5978;51.020;6.764;2023-06-26T05:35:36;11.30;;;5.93;;
11837;SDS011;5978;51.020;6.764;2023-06-26T05:38:02;8.67;;;6.10;;
11837;SDS011;5978;51.020;6.764;2023-06-26T05:40:28;9.70;;;6.90;;
11837;SDS011;5978;51.020;6.764;2023-06-26T05:42:54;9.27;;;6.87;;
11837;SDS011;5978;51.020;6.764;2023-06-26T05:45:19;9.43;;;6.27;;
11837;SDS011;5978;51.020;6.764;2023-06-26T05:47:45;8.40;;;5.70;;
11837;SDS011;5978;51.020;6.764;2023-06-26T05:50:11;8.17;;;5.50;;
11837;SDS011;5978;51.020;6.764;2023-06-26T05:52:38;6.43;;;5.73;;
11837;SDS011;5978;51.020;6.764;2023-06-26T05:55:04;14.57;;;6.10;;
11837;SDS011;5978;51.020;6.764;2023-06-26T05:57:30;9.13;;;6.40;;
11837;SDS011;5978;51.020;6.764;2023-06-26T05:59:56;7.30;;;5.93;;
11837;SDS011;5978;51.020;6.764;2023-06-26T06:02:22;8.07;;;6.00;;
11837;SDS011;5978;51.020;6.764;2023-06-26T06:04:48;5.80;;;5.30;;
11837;SDS011;5978;51.020;6.764;2023-06-26T06:07:14;11.67;;;6.20;;
11837;SDS011;5978;51.020;6.764;2023-06-26T06:09:40;8.73;;;5.70;;
11837;SDS011;5978;51.020;6.764;2023-06-26T06:12:06;7.50;;;6.70;;
11837;SDS011;5978;51.020;6.764;2023-06-26T06:14:32;9.90;;;5.87;;
11837;SDS011;5978;51.020;6.764;2023-06-26T06:16:58;8.37;;;6.43;;
11837;SDS011;5978;51.020;6.764;2023-06-26T06:19:24;10.37;;;6.20;;
11837;SDS011;5978;51.020;6.764;2023-06-26T06:21:50;9.43;;;6.47;;
11837;SDS011;5978;51.020;6.764;2023-06-26T06:24:15;5.60;;;5.00;;
11837;SDS011;5978;51.020;6.764;2023-06-26T06:26:41;8.17;;;5.67;;
11837;SDS011;5978;51.020;6.764;2023-06-26T06:29:07;7.50;;;5.40;;
11837;SDS011;5978;51.020;6.764;2023-06-26T06:31:32;8.70;;;5.30;;
11837;SDS011;5978;51.020;6.764;2023-06-26T06:33:58;8.83;;;5.43;;
11837;SDS011;5978;51.020;6.764;2023-06-26T06:36:23;10.77;;;5.60;;
11837;SDS011;5978;51.020;6.764;2023-06-26T06:38:49;5.93;;;5.30;;
11837;SDS011;5978;51.020;6.764;2023-06-26T06:41:14;9.57;;;5.80;;
11837;SDS011;5978;51.020;6.764;2023-06-26T06:43:41;10.43;;;5.70;;
11837;SDS011;5978;51.020;6.764;2023-06-26T06:46:07;6.40;;;5.43;;
11837;SDS011;5978;51.020;6.764;2023-06-26T06:48:33;8.23;;;5.60;;
11837;SDS011;5978;51.020;6.764;2023-06-26T06:50:59;7.60;;;4.97;;
11837;SDS011;5978;51.020;6.764;2023-06-26T06:53:24;7.80;;;5.40;;
11837;SDS011;5978;51.020;6.764;2023-06-26T06:55:50;6.07;;;5.40;;
11837;SDS011;5978;51.020;6.764;2023-06-26T06:58:16;6.60;;;5.50;;
11837;SDS011;5978;51.020;6.764;2023-06-26T07:00:43;8.47;;;5.90;;
11837;SDS011;5978;51.020;6.764;2023-06-26T07:03:09;11.13;;;5.93;;
11837;SDS011;5978;51.020;6.764;2023-06-26T07:05:35;8.00;;;5.30;;
11837;SDS011;5978;51.020;6.764;2023-06-26T07:08:01;11.90;;;6.73;;
11837;SDS011;5978;51.020;6.764;2023-06-26T07:10:27;8.70;;;6.67;;
11837;SDS011;5978;51.020;6.764;2023-06-26T07:12:53;9.17;;;7.23;;
11837;SDS011;5978;51.020;6.764;2023-06-26T07:15:18;7.33;;;6.33;;
11837;SDS011;5978;51.020;6.764;2023-06-26T07:17:44;8.80;;;6.10;;
11837;SDS011;5978;51.020;6.764;2023-06-26T07:20:10;7.13;;;5.80;;
11837;SDS011;5978;51.020;6.764;2023-06-26T07:22:40;8.60;;;5.70;;
11837;SDS011;5978;51.020;6.764;2023-06-26T07:25:06;11.50;;;6.77;;
11837;SDS011;5978;51.020;6.764;2023-06-26T07:27:34;13.90;;;7.10;;
11837;SDS011;5978;51.020;6.764;2023-06-26T07:30:03;9.40;;;6.10;;
11837;SDS011;5978;51.020;6.764;2023-06-26T07:32:29;9.30;;;6.60;;
11837;SDS011;5978;51.020;6.764;2023-06-26T07:34:55;10.40;;;5.87;;
11837;SDS011;5978;51.020;6.764;2023-06-26T07:37:21;8.20;;;5.93;;
11837;SDS011;5978;51.020;6.764;2023-06-26T07:39:47;11.60;;;6.97;;
11837;SDS011;5978;51.020;6.764;2023-06-26T07:42:13;11.73;;;6.90;;
11837;SDS011;5978;51.020;6.764;2023-06-26T07:44:39;9.83;;;6.40;;
11837;SDS011;5978;51.020;6.764;2023-06-26T07:47:06;12.23;;;6.23;;
11837;SDS011;5978;51.020;6.764;2023-06-26T07:49:31;10.20;;;5.63;;
11837;SDS011;5978;51.020;6.764;2023-06-26T07:51:57;13.23;;;6.10;;
11837;SDS011;5978;51.020;6.764;2023-06-26T07:54:22;9.47;;;6.50;;
11837;SDS011;5978;51.020;6.764;2023-06-26T07:56:52;10.97;;;5.80;;
11837;SDS011;5978;51.020;6.764;2023-06-26T07:59:22;15.00;;;6.70;;
11837;SDS011;5978;51.020;6.764;2023-06-26T08:01:49;11.53;;;6.00;;
11837;SDS011;5978;51.020;6.764;2023-06-26T08:04:17;10.87;;;6.47;;
11837;SDS011;5978;51.020;6.764;2023-06-26T08:06:44;7.10;;;5.63;;
11837;SDS011;5978;51.020;6.764;2023-06-26T08:09:09;11.37;;;7.23;;
11837;SDS011;5978;51.020;6.764;2023-06-26T08:11:36;7.50;;;5.27;;
11837;SDS011;5978;51.020;6.764;2023-06-26T08:14:01;9.97;;;5.60;;
11837;SDS011;5978;51.020;6.764;2023-06-26T08:16:27;15.00;;;5.60;;
11837;SDS011;5978;51.020;6.764;2023-06-26T08:18:52;16.00;;;5.93;;
11837;SDS011;5978;51.020;6.764;2023-06-26T08:21:18;8.83;;;6.20;;
11837;SDS011;5978;51.020;6.764;2023-06-26T08:23:43;8.60;;;6.07;;
11837;SDS011;5978;51.020;6.764;2023-06-26T08:26:09;11.13;;;6.30;;
11837;SDS011;5978;51.020;6.764;2023-06-26T08:28:34;10.90;;;6.50;;
11837;SDS011;5978;51.020;6.764;2023-06-26T08:31:00;16.13;;;7.27;;
11837;SDS011;5978;51.020;6.764;2023-06-26T08:33:26;16.80;;;6.37;;
11837;SDS011;5978;51.020;6.764;2023-06-26T15:16:31;4.70;;;1.97;;
11837;SDS011;5978;51.020;6.764;2023-06-26T15:18:57;4.63;;;1.47;;
11837;SDS011;5978;51.020;6.764;2023-06-26T15:21:23;1.97;;;1.67;;
11837;SDS011;5978;51.020;6.764;2023-06-26T15:23:49;3.60;;;1.93;;
11837;SDS011;5978;51.020;6.764;2023-06-26T15:26:15;5.80;;;1.73;;
11837;SDS011;5978;51.020;6.764;2023-06-26T15:28:41;4.13;;;1.93;;
11837;SDS011;5978;51.020;6.764;2023-06-26T15:31:06;5.63;;;1.90;;
11837;SDS011;5978;51.020;6.764;2023-06-26T15:33:32;4.30;;;1.57;;
11837;SDS011;5978;51.020;6.764;2023-06-26T15:35:57;4.40;;;1.80;;
11837;SDS011;5978;51.020;6.764;2023-06-26T15:38:23;2.17;;;1.70;;
11837;SDS011;5978;51.020;6.764;2023-06-26T15:40:49;4.03;;;1.80;;
11837;SDS011;5978;51.020;6.764;2023-06-26T15:43:14;2.47;;;1.73;;
11837;SDS011;5978;51.020;6.764;2023-06-26T15:45:40;2.43;;;1.80;;
11837;SDS011;5978;51.020;6.764;2023-06-26T15:48:05;7.87;;;1.90;;
11837;SDS011;5978;51.020;6.764;2023-06-26T15:50:31;3.80;;;1.50;;
11837;SDS011;5978;51.020;6.764;2023-06-26T15:52:57;2.77;;;2.23;;
11837;SDS011;5978;51.020;6.764;2023-06-26T15:55:22;2.83;;;1.70;;
11837;SDS011;5978;51.020;6.764;2023-06-26T15:57:48;2.97;;;1.70;;
11837;SDS011;5978;51.020;6.764;2023-06-26T16:00:14;2.53;;;1.90;;
11837;SDS011;5978;51.020;6.764;2023-06-26T16:02:41;3.70;;;2.07;;
11837;SDS011;5978;51.020;6.764;2023-06-26T16:05:06;1.90;;;1.60;;
11837;SDS011;5978;51.020;6.764;2023-06-26T16:07:32;3.37;;;1.90;;
11837;SDS011;5978;51.020;6.764;2023-06-26T16:09:57;2.80;;;1.80;;
11837;SDS011;5978;51.020;6.764;2023-06-26T16:12:23;3.67;;;1.80;;
11837;SDS011;5978;51.020;6.764;2023-06-26T16:14:49;5.87;;;1.97;;
11837;SDS011;5978;51.020;6.764;2023-06-26T16:17:14;4.33;;;1.53;;
11837;SDS011;5978;51.020;6.764;2023-06-26T16:19:40;2.50;;;2.10;;
11837;SDS011;5978;51.020;6.764;2023-06-26T16:22:06;2.90;;;1.70;;
11837;SDS011;5978;51.020;6.764;2023-06-26T16:24:33;5.20;;;1.73;;
11837;SDS011;5978;51.020;6.764;2023-06-26T16:26:59;4.40;;;1.73;;
11837;SDS011;5978;51.020;6.764;2023-06-26T16:29:24;5.13;;;1.80;;
11837;SDS011;5978;51.020;6.764;2023-06-26T16:31:51;4.93;;;2.17;;
11837;SDS011;5978;51.020;6.764;2023-06-26T16:34:17;3.20;;;1.90;;
11837;SDS011;5978;51.020;6.764;2023-06-26T16:36:43;3.53;;;1.70;;
11837;SDS011;5978;51.020;6.764;2023-06-26T16:39:08;3.60;;;1.90;;
11837;SDS011;5978;51.020;6.764;2023-06-26T16:41:36;4.30;;;1.90;;
11837;SDS011;5978;51.020;6.764;2023-06-26T16:44:01;3.30;;;1.50;;
11837;SDS011;5978;51.020;6.764;2023-06-26T16:46:27;2.73;;;1.70;;
11837;SDS011;5978;51.020;6.764;2023-06-26T16:48:52;2.83;;;1.67;;
11837;SDS011;5978;51.020;6.764;2023-06-26T16:51:21;5.57;;;2.30;;
11837;SDS011;5978;51.020;6.764;2023-06-26T16:53:47;3.87;;;1.87;;
11837;SDS011;5978;51.020;6.764;2023-06-26T16:56:13;5.63;;;1.90;;
11837;SDS011;5978;51.020;6.764;2023-06-26T16:58:38;2.47;;;1.57;;
11837;SDS011;5978;51.020;6.764;2023-06-26T17:01:04;2.43;;;2.03;;
11837;SDS011;5978;51.020;6.764;2023-06-26T17:03:30;4.07;;;1.90;;
11837;SDS011;5978;51.020;6.764;2023-06-26T17:05:55;6.97;;;2.10;;
11837;SDS011;5978;51.020;6.764;2023-06-26T17:08:21;2.30;;;1.60;;
11837;SDS011;5978;51.020;6.764;2023-06-26T17:10:46;2.93;;;1.37;;
11837;SDS011;5978;51.020;6.764;2023-06-26T17:13:12;1.90;;;1.63;;
11837;SDS011;5978;51.020;6.764;2023-06-26T17:15:37;2.60;;;1.50;;
11837;SDS011;5978;51.020;6.764;2023-06-26T17:18:03;3.67;;;1.77;;
11837;SDS011;5978;51.020;6.764;2023-06-26T17:20:29;2.00;;;1.80;;
11837;SDS011;5978;51.020;6.764;2023-06-26T17:22:56;2.33;;;1.40;;
11837;SDS011;5978;51.020;6.764;2023-06-26T17:25:23;2.00;;;1.37;;
11837;SDS011;5978;51.020;6.764;2023-06-26T17:27:49;3.50;;;1.50;;
11837;SDS011;5978;51.020;6.764;2023-06-26T17:30:14;2.37;;;1.47;;
11837;SDS011;5978;51.020;6.764;2023-06-26T17:32:41;3.33;;;2.23;;
11837;SDS011;5978;51.020;6.764;2023-06-26T17:35:07;5.00;;;1.60;;
11837;SDS011;5978;51.020;6.764;2023-06-26T17:37:33;1.67;;;1.20;;
11837;SDS011;5978;51.020;6.764;2023-06-26T17:39:58;4.90;;;1.60;;
11837;SDS011;5978;51.020;6.764;2023-06-26T17:42:24;3.37;;;1.40;;
11837;SDS011;5978;51.020;6.764;2023-06-26T17:44:49;2.63;;;1.17;;
11837;SDS011;5978;51.020;6.764;2023-06-26T17:47:15;4.80;;;1.60;;
11837;SDS011;5978;51.020;6.764;2023-06-26T17:49:41;1.77;;;1.53;;
11837;SDS011;5978;51.020;6.764;2023-06-26T17:52:06;4.30;;;2.27;;
11837;SDS011;5978;51.020;6.764;2023-06-26T17:54:33;2.73;;;1.57;;
11837;SDS011;5978;51.020;6.764;2023-06-26T17:56:59;4.13;;;2.23;;
11837;SDS011;5978;51.020;6.764;2023-06-26T17:59:24;1.73;;;1.33;;
11837;SDS011;5978;51.020;6.764;2023-06-26T18:01:50;3.20;;;1.63;;
11837;SDS011;5978;51.020;6.764;2023-06-26T18:04:15;2.70;;;1.83;;
11837;SDS011;5978;51.020;6.764;2023-06-26T18:06:41;1.50;;;1.40;;
11837;SDS011;5978;51.020;6.764;2023-06-26T18:09:07;2.53;;;2.03;;
11837;SDS011;5978;51.020;6.764;2023-06-26T18:11:33;2.83;;;1.40;;
11837;SDS011;5978;51.020;6.764;2023-06-26T18:14:02;3.17;;;1.50;;
11837;SDS011;5978;51.020;6.764;2023-06-26T18:16:28;4.80;;;2.23;;
11837;SDS011;5978;51.020;6.764;2023-06-26T18:18:55;5.00;;;1.97;;
11837;SDS011;5978;51.020;6.764;2023-06-26T18:21:23;6.53;;;1.70;;
11837;SDS011;5978;51.020;6.764;2023-06-26T18:23:50;3.97;;;1.97;;
11837;SDS011;5978;51.020;6.764;2023-06-26T18:26:16;2.57;;;2.03;;
11837;SDS011;5978;51.020;6.764;2023-06-26T18:28:42;3.27;;;1.60;;
11837;SDS011;5978;51.020;6.764;2023-06-26T18:31:08;7.73;;;1.80;;
11837;SDS011;5978;51.020;6.764;2023-06-26T18:33:34;4.83;;;1.40;;
11837;SDS011;5978;51.020;6.764;2023-06-26T18:36:00;3.30;;;1.10;;
11837;SDS011;5978;51.020;6.764;2023-06-26T18:38:26;1.40;;;1.30;;
11837;SDS011;5978;51.020;6.764;2023-06-26T18:40:52;5.70;;;1.70;;
11837;SDS011;5978;51.020;6.764;2023-06-26T18:43:18;2.10;;;1.80;;
11837;SDS011;5978;51.020;6.764;2023-06-26T18:45:46;2.33;;;1.70;;
11837;SDS011;5978;51.020;6.764;2023-06-26T18:48:12;4.83;;;1.83;;
11837;SDS011;5978;51.020;6.764;2023-06-26T18:50:38;3.40;;;2.10;;
11837;SDS011;5978;51.020;6.764;2023-06-26T18:53:03;2.60;;;1.57;;
11837;SDS011;5978;51.020;6.764;2023-06-26T18:55:29;2.90;;;1.77;;
11837;SDS011;5978;51.020;6.764;2023-06-26T18:57:57;3.20;;;1.60;;
11837;SDS011;5978;51.020;6.764;2023-06-26T19:00:23;2.90;;;1.90;;
11837;SDS011;5978;51.020;6.764;2023-06-26T19:02:49;2.43;;;2.20;;
11837;SDS011;5978;51.020;6.764;2023-06-26T19:05:15;2.80;;;1.73;;
11837;SDS011;5978;51.020;6.764;2023-06-26T19:07:42;2.70;;;1.40;;
11837;SDS011;5978;51.020;6.764;2023-06-26T19:10:08;2.50;;;1.60;;
11837;SDS011;5978;51.020;6.764;2023-06-26T19:12:35;3.43;;;1.90;;
11837;SDS011;5978;51.020;6.764;2023-06-26T19:15:01;3.13;;;2.37;;
11837;SDS011;5978;51.020;6.764;2023-06-26T19:17:27;4.10;;;1.63;;
11837;SDS011;5978;51.020;6.764;2023-06-26T19:19:53;3.47;;;2.10;;
11837;SDS011;5978;51.020;6.764;2023-06-26T19:22:18;7.30;;;1.57;;
11837;SDS011;5978;51.020;6.764;2023-06-26T19:24:44;2.77;;;1.83;;
11837;SDS011;5978;51.020;6.764;2023-06-26T19:27:09;2.87;;;1.70;;
11837;SDS011;5978;51.020;6.764;2023-06-26T19:29:35;3.17;;;1.90;;
11837;SDS011;5978;51.020;6.764;2023-06-26T19:32:00;3.30;;;1.70;;
11837;SDS011;5978;51.020;6.764;2023-06-26T19:34:26;3.03;;;1.63;;
11837;SDS011;5978;51.020;6.764;2023-06-26T19:36:51;3.70;;;1.80;;
11837;SDS011;5978;51.020;6.764;2023-06-26T19:39:17;4.23;;;1.53;;
11837;SDS011;5978;51.020;6.764;2023-06-26T19:41:42;1.73;;;1.57;;
11837;SDS011;5978;51.020;6.764;2023-06-26T19:44:08;3.10;;;2.10;;
11837;SDS011;5978;51.020;6.764;2023-06-26T19:46:33;2.50;;;1.73;;
11837;SDS011;5978;51.020;6.764;2023-06-26T19:48:59;3.80;;;2.33;;
11837;SDS011;5978;51.020;6.764;2023-06-26T19:51:24;2.30;;;2.10;;
11837;SDS011;5978;51.020;6.764;2023-06-26T19:53:50;2.80;;;1.63;;
11837;SDS011;5978;51.020;6.764;2023-06-26T19:56:16;1.83;;;1.67;;
11837;SDS011;5978;51.020;6.764;2023-06-26T19:58:42;2.07;;;1.80;;
11837;SDS011;5978;51.020;6.764;2023-06-26T20:01:08;1.77;;;1.50;;
11837;SDS011;5978;51.020;6.764;2023-06-26T20:03:34;3.43;;;1.47;;
11837;SDS011;5978;51.020;6.764;2023-06-26T20:05:59;2.63;;;1.70;;
11837;SDS011;5978;51.020;6.764;2023-06-26T20:08:25;4.90;;;1.80;;
11837;SDS011;5978;51.020;6.764;2023-06-26T20:10:50;4.03;;;2.03;;
11837;SDS011;5978;51.020;6.764;2023-06-26T20:13:16;4.50;;;1.97;;
11837;SDS011;5978;51.020;6.764;2023-06-26T20:15:41;2.17;;;1.90;;
11837;SDS011;5978;51.020;6.764;2023-06-26T20:18:07;1.63;;;1.53;;
11837;SDS011;5978;51.020;6.764;2023-06-26T20:20:33;4.63;;;1.77;;
11837;SDS011;5978;51.020;6.764;2023-06-26T20:22:58;3.40;;;1.60;;
11837;SDS011;5978;51.020;6.764;2023-06-26T20:25:26;2.50;;;1.93;;
11837;SDS011;5978;51.020;6.764;2023-06-26T20:27:52;3.60;;;2.00;;
11837;SDS011;5978;51.020;6.764;2023-06-26T20:30:18;2.50;;;1.47;;
11837;SDS011;5978;51.020;6.764;2023-06-26T20:32:43;1.60;;;1.50;;
11837;SDS011;5978;51.020;6.764;2023-06-26T20:35:10;3.40;;;1.83;;
11837;SDS011;5978;51.020;6.764;2023-06-26T20:37:35;2.50;;;1.70;;
11837;SDS011;5978;51.020;6.764;2023-06-26T20:40:01;2.30;;;1.80;;
11837;SDS011;5978;51.020;6.764;2023-06-26T20:42:27;2.00;;;1.40;;
11837;SDS011;5978;51.020;6.764;2023-06-26T20:44:53;3.43;;;1.77;;
11837;SDS011;5978;51.020;6.764;2023-06-26T20:47:22;2.50;;;2.00;;
11837;SDS011;5978;51.020;6.764;2023-06-26T20:49:55;8.37;;;1.77;;
11837;SDS011;5978;51.020;6.764;2023-06-26T20:52:20;3.17;;;1.80;;
11837;SDS011;5978;51.020;6.764;2023-06-26T20:54:50;2.10;;;1.60;;
11837;SDS011;5978;51.020;6.764;2023-06-26T20:57:16;3.90;;;1.87;;
11837;SDS011;5978;51.020;6.764;2023-06-26T20:59:42;2.77;;;2.40;;
11837;SDS011;5978;51.020;6.764;2023-06-26T21:02:08;4.40;;;2.30;;
11837;SDS011;5978;51.020;6.764;2023-06-26T21:04:34;2.13;;;1.87;;
11837;SDS011;5978;51.020;6.764;2023-06-26T21:07:00;3.23;;;1.30;;
11837;SDS011;5978;51.020;6.764;2023-06-26T21:09:27;3.90;;;3.20;;
11837;SDS011;5978;51.020;6.764;2023-06-26T21:11:53;4.10;;;1.80;;
11837;SDS011;5978;51.020;6.764;2023-06-26T21:14:18;2.93;;;1.80;;
11837;SDS011;5978;51.020;6.764;2023-06-26T21:16:44;6.00;;;2.23;;
11837;SDS011;5978;51.020;6.764;2023-06-26T21:19:09;4.33;;;2.00;;
11837;SDS011;5978;51.020;6.764;2023-06-26T21:21:35;5.20;;;2.10;;
11837;SDS011;5978;51.020;6.764;2023-06-26T21:24:01;4.70;;;2.50;;
11837;SDS011;5978;51.020;6.764;2023-06-26T21:26:26;3.70;;;2.37;;
11837;SDS011;5978;51.020;6.764;2023-06-26T21:28:52;2.87;;;2.47;;
11837;SDS011;5978;51.020;6.764;2023-06-26T21:31:17;6.20;;;3.10;;
11837;SDS011;5978;51.020;6.764;2023-06-26T21:33:43;2.57;;;2.00;;
11837;SDS011;5978;51.020;6.764;2023-06-26T21:36:08;5.30;;;2.23;;